Overview Statistics Trail Chart Weather Telemetry Raw packets
 

This is the latest recevied weather packets stored in our database for station/object ED3YAB-7. If no packets are shown the sender has not sent any weather packets the latest 10 day(s).

<< 32 33 34 35 36 37 >>
Time Temp. Humidity Pressure Rain* Wind** Luminosity Snow
1777403012 17.78° C 50% 1015.8 hPa - - - -
1777403001 17.78° C 50% 1015.8 hPa - - - -
1777401808 18.33° C 47% 1015.7 hPa - - - -
1777401801 18.33° C 47% 1015.7 hPa - - - -
1777399412 27.78° C 27% 1016 hPa - - - -
1777399401 27.78° C 27% 1016 hPa - - - -
1777398208 29.44° C 23% 1016 hPa - - - -
1777398201 29.44° C 23% 1016 hPa - - - -
1777397012 37.78° C 15% 1016.1 hPa - - - -
1777397000 37.78° C 15% 1016.1 hPa - - - -
1777396328 39.44° C 13% 1016.1 hPa - - - -
1777395139 38.33° C 14% 1016.2 hPa - - - -
1777395128 38.33° C 14% 1016.2 hPa - - - -
1777393928 41.11° C 12% 1016.1 hPa - - - -
1777392728 43.33° C 11% 1016.1 hPa - - - -
1777391528 42.22° C 11% 1016.1 hPa - - - -
1777390328 43.33° C 10% 1016.2 hPa - - - -
1777389136 44.44° C 9% 1016.2 hPa - - - -
1777389129 44.44° C 9% 1016.2 hPa - - - -
1777387940 44.44° C 10% 1016.3 hPa - - - -
1777387929 44.44° C 10% 1016.3 hPa - - - -
1777386729 42.78° C 9% 1016.7 hPa - - - -
1777385529 37.78° C 12% 1016.8 hPa - - - -
1777384336 42.22° C 10% 1016.9 hPa - - - -
1777384328 42.22° C 10% 1016.9 hPa - - - -

* Rain since midnight (hover to see other rain measurements)
** Current wind speed in m/s (hover to see current wind gust speed)